Time;durP1;ratioP1;P1;durP2;ratioP2;P2;SDS_P1;SDS_P2;PMS_P1;PMS_P2;Temp;Humidity;BMP_temperature;BMP_pressure;BME280_temperature;BME280_humidity;BME280_pressure;Samples;Min_cycle;Max_cycle;Signal;HPM_P1;HPM_P2
2024/01/12 00:01:14;;;;;;;33.97;19.80;;;;;;;;;;6289585;28;24458;-63
2024/01/12 00:04:16;;;;;;;32.42;19.40;;;;;;;;;;6273469;28;24467;-63
2024/01/12 00:07:17;;;;;;;32.30;19.25;;;;;;;;;;6291704;28;24715;-64
2024/01/12 00:10:19;;;;;;;33.92;20.23;;;;;;;;;;6289738;28;24415;-63
2024/01/12 00:13:22;;;;;;;30.92;18.70;;;;;;;;;;6292214;28;24499;-63
2024/01/12 00:16:25;;;;;;;31.17;18.58;;;;;;;;;;6291199;28;24423;-63
2024/01/12 00:19:27;;;;;;;32.20;19.17;;;;;;;;;;6292359;28;24543;-63
2024/01/12 00:22:29;;;;;;;32.53;19.10;;;;;;;;;;6287757;28;25123;-63
2024/01/12 00:25:30;;;;;;;31.33;19.02;;;;;;;;;;6293693;28;24419;-62
2024/01/12 00:28:32;;;;;;;32.03;18.88;;;;;;;;;;6289389;28;24843;-63
2024/01/12 00:31:35;;;;;;;30.37;18.80;;;;;;;;;;6288432;28;24481;-63
2024/01/12 00:34:37;;;;;;;29.85;18.40;;;;;;;;;;6288722;28;24473;-63
2024/01/12 00:37:38;;;;;;;30.15;17.83;;;;;;;;;;6289711;28;24422;-63
2024/01/12 00:40:40;;;;;;;30.17;18.60;;;;;;;;;;6291465;28;24652;-63
2024/01/12 00:43:42;;;;;;;32.47;18.70;;;;;;;;;;6279603;28;24433;-63
2024/01/12 00:46:45;;;;;;;28.73;18.45;;;;;;;;;;6295581;28;24414;-63
2024/01/12 00:49:47;;;;;;;31.05;18.45;;;;;;;;;;6298665;28;24456;-63
2024/01/12 00:52:48;;;;;;;30.37;18.83;;;;;;;;;;6300968;28;24433;-64
2024/01/12 00:55:50;;;;;;;32.60;20.30;;;;;;;;;;6301717;28;24430;-63
2024/01/12 00:58:52;;;;;;;32.42;19.75;;;;;;;;;;6298862;28;24778;-63
2024/01/12 01:01:58;;;;;;;31.58;19.50;;;;;;;;;;6298462;28;24866;-63
2024/01/12 01:04:59;;;;;;;32.30;18.88;;;;;;;;;;6299667;28;24617;-63
2024/01/12 01:08:01;;;;;;;34.53;19.93;;;;;;;;;;6298892;28;24486;-63
2024/01/12 01:11:03;;;;;;;33.83;19.83;;;;;;;;;;6297105;28;24438;-63
2024/01/12 01:14:04;;;;;;;32.97;20.15;;;;;;;;;;6298624;28;24812;-63
2024/01/12 01:17:07;;;;;;;32.83;19.73;;;;;;;;;;6299526;28;24894;-63
2024/01/12 01:20:11;;;;;;;34.95;20.58;;;;;;;;;;6301293;28;24429;-63
2024/01/12 01:23:12;;;;;;;33.80;20.43;;;;;;;;;;6297936;28;24427;-63
2024/01/12 01:26:14;;;;;;;33.08;19.75;;;;;;;;;;6296355;28;24847;-63
2024/01/12 01:29:16;;;;;;;34.17;20.60;;;;;;;;;;6298348;28;24733;-64
2024/01/12 01:32:19;;;;;;;32.30;20.15;;;;;;;;;;6299116;28;24454;-63
2024/01/12 01:35:21;;;;;;;33.47;20.43;;;;;;;;;;6298785;28;25078;-63
2024/01/12 01:38:23;;;;;;;34.22;20.52;;;;;;;;;;6302211;28;24426;-63
2024/01/12 01:41:25;;;;;;;33.92;20.45;;;;;;;;;;6297434;28;24426;-63
2024/01/12 01:44:26;;;;;;;33.60;20.08;;;;;;;;;;6269637;28;24437;-63
2024/01/12 01:47:30;;;;;;;34.50;20.02;;;;;;;;;;6296329;28;24423;-67
2024/01/12 01:50:32;;;;;;;32.22;19.95;;;;;;;;;;6299781;28;24430;-64
2024/01/12 01:53:34;;;;;;;33.90;20.77;;;;;;;;;;6293957;28;24425;-63
2024/01/12 01:56:38;;;;;;;32.63;19.98;;;;;;;;;;6293130;28;24407;-64
2024/01/12 01:59:40;;;;;;;31.70;19.50;;;;;;;;;;6296005;28;24476;-62
2024/01/12 02:02:43;;;;;;;34.85;21.02;;;;;;;;;;6295644;28;24826;-64
2024/01/12 02:05:47;;;;;;;33.57;20.97;;;;;;;;;;6264372;28;24415;-63
2024/01/12 02:08:49;;;;;;;33.97;20.48;;;;;;;;;;6293532;28;24434;-63
2024/01/12 02:11:51;;;;;;;34.40;20.70;;;;;;;;;;6295164;28;24828;-63
2024/01/12 02:14:52;;;;;;;32.90;20.65;;;;;;;;;;6291668;28;24435;-63
2024/01/12 02:17:56;;;;;;;35.22;21.63;;;;;;;;;;6291594;28;24434;-63
2024/01/12 02:20:59;;;;;;;35.35;21.67;;;;;;;;;;6294278;28;24419;-63
2024/01/12 02:24:01;;;;;;;35.40;20.90;;;;;;;;;;6297817;28;24662;-63
2024/01/12 02:27:02;;;;;;;34.37;20.60;;;;;;;;;;6293677;28;24430;-63
2024/01/12 02:30:06;;;;;;;36.28;21.63;;;;;;;;;;6291240;28;24625;-63
2024/01/12 02:33:08;;;;;;;34.88;21.38;;;;;;;;;;6294383;28;24431;-63
2024/01/12 02:36:11;;;;;;;35.38;21.70;;;;;;;;;;6293031;28;24823;-63
2024/01/12 02:39:13;;;;;;;36.17;21.00;;;;;;;;;;6292186;28;24430;-63
2024/01/12 02:42:15;;;;;;;35.60;20.58;;;;;;;;;;6292688;28;24427;-63
2024/01/12 02:45:16;;;;;;;33.03;20.50;;;;;;;;;;6289333;28;24434;-63
2024/01/12 02:48:18;;;;;;;36.97;21.08;;;;;;;;;;6292119;28;24824;-63
2024/01/12 02:51:21;;;;;;;38.25;21.40;;;;;;;;;;6274126;28;24667;-63
2024/01/12 02:54:23;;;;;;;36.00;21.30;;;;;;;;;;6291052;28;24648;-62
2024/01/12 02:57:25;;;;;;;39.08;22.00;;;;;;;;;;6281271;28;24840;-63
2024/01/12 03:00:26;;;;;;;37.65;22.00;;;;;;;;;;6291159;28;24427;-63
2024/01/12 03:03:28;;;;;;;35.22;20.90;;;;;;;;;;6288642;28;24415;-63
2024/01/12 03:06:31;;;;;;;33.47;20.73;;;;;;;;;;6290864;28;25099;-64
2024/01/12 03:09:33;;;;;;;33.92;21.00;;;;;;;;;;6287545;28;24685;-63
2024/01/12 03:12:35;;;;;;;32.20;20.50;;;;;;;;;;6291837;28;24433;-62
2024/01/12 03:15:36;;;;;;;37.50;21.70;;;;;;;;;;6292639;28;24422;-63
2024/01/12 03:18:38;;;;;;;33.88;21.45;;;;;;;;;;6292590;28;24435;-63
2024/01/12 03:21:41;;;;;;;34.88;21.23;;;;;;;;;;6290272;28;24644;-63
2024/01/12 03:24:43;;;;;;;36.33;21.83;;;;;;;;;;6287707;28;24428;-63
2024/01/12 03:27:45;;;;;;;39.30;23.47;;;;;;;;;;6291865;28;24760;-63
2024/01/12 03:30:46;;;;;;;37.83;23.33;;;;;;;;;;6290379;28;24423;-63
2024/01/12 03:33:48;;;;;;;36.22;22.38;;;;;;;;;;6290933;28;24831;-63
2024/01/12 03:36:51;;;;;;;38.88;23.60;;;;;;;;;;6291202;28;24434;-64
2024/01/12 03:39:53;;;;;;;36.97;23.52;;;;;;;;;;6271979;28;24481;-63
2024/01/12 03:42:55;;;;;;;42.20;24.25;;;;;;;;;;6289265;28;24486;-64
2024/01/12 03:45:58;;;;;;;40.45;24.50;;;;;;;;;;6279471;28;24430;-64
2024/01/12 03:48:59;;;;;;;41.73;25.33;;;;;;;;;;6292478;28;24832;-64
2024/01/12 03:52:03;;;;;;;42.35;25.23;;;;;;;;;;6291596;28;24943;-63
2024/01/12 03:55:05;;;;;;;41.38;26.05;;;;;;;;;;6291891;28;24904;-64
2024/01/12 03:58:07;;;;;;;40.90;25.52;;;;;;;;;;6292467;28;24905;-63
2024/01/12 04:01:08;;;;;;;40.03;23.98;;;;;;;;;;6292008;28;24423;-64
2024/01/12 04:04:10;;;;;;;38.40;23.25;;;;;;;;;;6291642;28;24453;-64
2024/01/12 04:07:13;;;;;;;38.45;23.05;;;;;;;;;;6294649;28;24419;-63
2024/01/12 04:10:15;;;;;;;40.25;24.58;;;;;;;;;;6294507;28;24434;-63
2024/01/12 04:13:17;;;;;;;38.42;24.10;;;;;;;;;;6288646;28;24571;-63
2024/01/12 04:16:19;;;;;;;39.05;23.85;;;;;;;;;;6290452;28;24421;-63
2024/01/12 04:19:21;;;;;;;40.30;24.67;;;;;;;;;;6291728;28;24440;-64
2024/01/12 04:22:24;;;;;;;39.80;23.73;;;;;;;;;;6287969;28;24494;-63
2024/01/12 04:25:25;;;;;;;37.17;23.23;;;;;;;;;;6289336;28;24613;-63
2024/01/12 04:28:27;;;;;;;36.42;21.95;;;;;;;;;;6289781;28;24442;-63
2024/01/12 04:31:29;;;;;;;38.83;22.92;;;;;;;;;;6272202;28;24469;-63
2024/01/12 04:34:31;;;;;;;37.10;21.90;;;;;;;;;;6272913;28;24427;-62
2024/01/12 04:37:34;;;;;;;34.00;21.40;;;;;;;;;;6287446;28;25089;-63
2024/01/12 04:40:36;;;;;;;34.55;21.92;;;;;;;;;;6289037;28;24492;-64
2024/01/12 04:43:38;;;;;;;35.23;22.10;;;;;;;;;;6290238;28;24625;-63
2024/01/12 04:46:42;;;;;;;37.60;22.13;;;;;;;;;;6263635;28;24442;-64
2024/01/12 04:49:44;;;;;;;37.95;22.73;;;;;;;;;;6290817;28;24481;-63
2024/01/12 04:52:47;;;;;;;38.67;22.08;;;;;;;;;;6293926;28;24413;-63
2024/01/12 04:55:49;;;;;;;36.27;22.20;;;;;;;;;;6284349;28;24429;-64
2024/01/12 04:58:50;;;;;;;38.58;22.73;;;;;;;;;;6274096;28;24426;-63
2024/01/12 05:01:52;;;;;;;38.53;22.63;;;;;;;;;;6289902;28;24472;-63
2024/01/12 05:04:54;;;;;;;34.60;21.63;;;;;;;;;;6287209;28;24438;-63
2024/01/12 05:07:57;;;;;;;36.63;22.05;;;;;;;;;;6289611;28;24423;-62
2024/01/12 05:10:59;;;;;;;35.95;21.73;;;;;;;;;;6292766;28;24618;-63
2024/01/12 05:14:00;;;;;;;34.53;21.52;;;;;;;;;;6288974;28;24423;-63
2024/01/12 05:17:02;;;;;;;38.37;21.47;;;;;;;;;;6289425;28;24623;-63
2024/01/12 05:20:06;;;;;;;35.83;21.52;;;;;;;;;;6286124;28;24489;-63
2024/01/12 05:23:09;;;;;;;35.90;21.55;;;;;;;;;;6286911;28;24423;-63
2024/01/12 05:26:13;;;;;;;35.75;22.00;;;;;;;;;;6289723;28;24621;-63
2024/01/12 05:29:15;;;;;;;37.80;22.08;;;;;;;;;;6295524;28;24687;-62
2024/01/12 05:32:16;;;;;;;37.97;23.02;;;;;;;;;;6275394;28;24441;-63
2024/01/12 05:35:18;;;;;;;33.28;21.55;;;;;;;;;;6292150;28;24629;-65
2024/01/12 05:38:21;;;;;;;40.63;23.57;;;;;;;;;;6296216;28;24489;-63
2024/01/12 05:41:23;;;;;;;37.67;22.92;;;;;;;;;;6294273;28;24503;-63
2024/01/12 05:44:25;;;;;;;37.33;22.88;;;;;;;;;;6292765;28;24493;-63
2024/01/12 05:47:27;;;;;;;38.28;22.65;;;;;;;;;;6273733;28;24835;-63
2024/01/12 05:50:29;;;;;;;38.13;23.27;;;;;;;;;;6276353;28;24503;-63
2024/01/12 05:53:32;;;;;;;38.53;23.35;;;;;;;;;;6292970;28;24495;-63
2024/01/12 05:56:33;;;;;;;37.97;22.50;;;;;;;;;;6289985;28;24485;-63
2024/01/12 05:59:35;;;;;;;36.92;22.75;;;;;;;;;;6293819;28;24418;-62
2024/01/12 06:02:37;;;;;;;37.17;23.00;;;;;;;;;;6292819;28;24434;-63
2024/01/12 06:05:38;;;;;;;38.53;22.77;;;;;;;;;;6290352;28;24481;-63
2024/01/12 06:08:42;;;;;;;36.28;22.65;;;;;;;;;;6294250;28;24618;-63
2024/01/12 06:11:44;;;;;;;39.35;23.27;;;;;;;;;;6296691;28;24613;-64
2024/01/12 06:14:46;;;;;;;36.08;22.42;;;;;;;;;;6294990;28;24418;-63
2024/01/12 06:17:48;;;;;;;37.80;22.65;;;;;;;;;;6293878;28;24433;-63
2024/01/12 06:20:50;;;;;;;35.50;22.10;;;;;;;;;;6293029;28;24428;-62
2024/01/12 06:23:53;;;;;;;36.15;22.42;;;;;;;;;;6291235;28;24435;-63
2024/01/12 06:26:55;;;;;;;34.70;21.60;;;;;;;;;;6288580;28;24427;-61
2024/01/12 06:29:57;;;;;;;34.77;21.67;;;;;;;;;;6292046;28;24477;-63
2024/01/12 06:32:59;;;;;;;34.30;22.15;;;;;;;;;;6272309;28;24426;-69
2024/01/12 06:36:00;;;;;;;37.33;22.90;;;;;;;;;;6291936;28;24532;-69
2024/01/12 06:39:05;;;;;;;37.43;23.27;;;;;;;;;;6273175;28;24459;-70
2024/01/12 06:42:06;;;;;;;36.17;23.15;;;;;;;;;;6293919;28;24448;-70
2024/01/12 06:45:10;;;;;;;35.93;22.90;;;;;;;;;;6294451;28;24435;-69
2024/01/12 06:48:12;;;;;;;36.95;22.98;;;;;;;;;;6294348;28;24483;-70
2024/01/12 06:51:22;;;;;;;41.95;23.70;;;;;;;;;;6289347;28;24430;-69
2024/01/12 06:54:25;;;;;;;35.60;23.02;;;;;;;;;;6287659;28;24420;-70
2024/01/12 06:57:27;;;;;;;36.20;22.27;;;;;;;;;;6288711;28;24433;-70
2024/01/12 07:00:29;;;;;;;35.90;22.27;;;;;;;;;;6288880;28;25106;-70
2024/01/12 07:03:30;;;;;;;34.40;22.23;;;;;;;;;;6289618;28;24489;-69
2024/01/12 07:06:32;;;;;;;36.50;22.85;;;;;;;;;;6273536;28;24783;-70
2024/01/12 07:09:35;;;;;;;37.25;23.20;;;;;;;;;;6290018;28;24684;-70
2024/01/12 07:12:37;;;;;;;38.83;22.83;;;;;;;;;;6288020;28;24823;-70
2024/01/12 07:15:39;;;;;;;36.88;22.13;;;;;;;;;;6288273;28;24880;-70
2024/01/12 07:18:42;;;;;;;35.80;23.20;;;;;;;;;;6288823;28;24903;-70
2024/01/12 07:21:43;;;;;;;36.47;23.33;;;;;;;;;;6288531;28;24432;-70
2024/01/12 07:24:47;;;;;;;36.88;22.42;;;;;;;;;;6288340;28;24839;-70
2024/01/12 07:27:49;;;;;;;33.95;21.98;;;;;;;;;;6289714;28;24421;-71
2024/01/12 07:30:51;;;;;;;34.65;22.10;;;;;;;;;;6287103;28;24882;-70
2024/01/12 07:33:53;;;;;;;36.20;22.80;;;;;;;;;;6286424;28;25085;-71
2024/01/12 07:36:54;;;;;;;34.65;22.60;;;;;;;;;;6285615;28;24419;-69
2024/01/12 07:39:57;;;;;;;36.35;22.90;;;;;;;;;;6288138;28;24423;-69
2024/01/12 07:42:59;;;;;;;36.25;23.27;;;;;;;;;;6291923;28;24787;-63
2024/01/12 07:46:01;;;;;;;37.50;23.88;;;;;;;;;;6288145;28;24528;-63
2024/01/12 07:49:03;;;;;;;40.28;24.80;;;;;;;;;;6291903;28;24438;-63
2024/01/12 07:52:05;;;;;;;36.93;23.47;;;;;;;;;;6291897;28;24431;-62
2024/01/12 07:55:10;;;;;;;37.60;23.37;;;;;;;;;;6290818;28;24606;-63
2024/01/12 07:58:11;;;;;;;35.97;23.02;;;;;;;;;;6288706;28;24433;-63
2024/01/12 08:01:14;;;;;;;35.55;23.55;;;;;;;;;;6290559;28;24490;-63
2024/01/12 08:04:15;;;;;;;37.88;23.92;;;;;;;;;;6289651;28;24681;-60
2024/01/12 08:07:17;;;;;;;38.00;23.03;;;;;;;;;;6289599;28;24403;-62
2024/01/12 08:10:20;;;;;;;37.67;23.52;;;;;;;;;;6290394;28;24407;-63
2024/01/12 08:13:22;;;;;;;38.67;23.23;;;;;;;;;;6288050;28;24416;-63
2024/01/12 08:16:24;;;;;;;36.30;23.57;;;;;;;;;;6289727;28;24503;-63
2024/01/12 08:19:25;;;;;;;36.40;23.42;;;;;;;;;;6286632;28;24827;-63
2024/01/12 08:22:27;;;;;;;37.80;23.90;;;;;;;;;;6290337;28;24418;-63
2024/01/12 08:25:30;;;;;;;38.03;23.92;;;;;;;;;;6270235;28;24435;-64
2024/01/12 08:28:32;;;;;;;37.27;23.57;;;;;;;;;;6272967;28;24626;-63
2024/01/12 08:31:34;;;;;;;36.15;23.67;;;;;;;;;;6289513;28;24419;-64
2024/01/12 08:34:35;;;;;;;37.65;24.35;;;;;;;;;;6288950;28;24426;-63
2024/01/12 08:37:38;;;;;;;35.33;23.17;;;;;;;;;;6289365;28;24614;-64
2024/01/12 08:40:41;;;;;;;37.20;23.77;;;;;;;;;;6289292;28;24434;-64
2024/01/12 08:43:42;;;;;;;33.88;22.95;;;;;;;;;;6290300;28;24423;-63
2024/01/12 08:46:44;;;;;;;35.50;23.20;;;;;;;;;;6271128;28;24508;-63
2024/01/12 08:49:46;;;;;;;36.28;23.27;;;;;;;;;;6270206;28;24423;-63
2024/01/12 08:52:48;;;;;;;32.80;22.95;;;;;;;;;;6270022;28;24441;-63
2024/01/12 08:55:51;;;;;;;35.53;23.35;;;;;;;;;;6291749;28;24796;-63
2024/01/12 08:58:53;;;;;;;33.78;23.67;;;;;;;;;;6286838;28;24419;-64
2024/01/12 09:01:56;;;;;;;34.50;23.42;;;;;;;;;;6289455;28;24422;-63
2024/01/12 09:04:58;;;;;;;32.75;23.60;;;;;;;;;;6295176;28;24436;-63
2024/01/12 09:08:01;;;;;;;34.08;23.85;;;;;;;;;;6293043;28;24507;-63
2024/01/12 09:11:05;;;;;;;36.28;24.90;;;;;;;;;;6294735;28;24473;-63
2024/01/12 09:14:06;;;;;;;107.33;62.10;;;;;;;;;;6292832;28;24431;-62
2024/01/12 09:17:08;;;;;;;116.57;64.72;;;;;;;;;;6291995;28;24514;-63
2024/01/12 09:20:11;;;;;;;101.30;56.22;;;;;;;;;;6273869;28;24857;-62
2024/01/12 09:23:13;;;;;;;80.18;46.20;;;;;;;;;;6295404;28;24427;-63
2024/01/12 09:26:16;;;;;;;70.65;41.53;;;;;;;;;;6294589;28;24480;-63
2024/01/12 09:29:18;;;;;;;48.17;31.20;;;;;;;;;;6291952;28;24423;-64
2024/01/12 09:32:19;;;;;;;38.00;26.48;;;;;;;;;;6276773;28;24489;-63
2024/01/12 09:35:22;;;;;;;36.40;24.98;;;;;;;;;;6289890;28;24652;-63
2024/01/12 09:38:23;;;;;;;33.28;23.35;;;;;;;;;;6275038;28;24851;-63
2024/01/12 09:41:32;;;;;;;32.80;23.58;;;;;;;;;;6291060;28;24434;-63
2024/01/12 09:44:37;;;;;;;32.55;23.27;;;;;;;;;;6292482;28;25194;-63
2024/01/12 09:47:40;;;;;;;34.15;23.45;;;;;;;;;;6291802;28;24478;-65
2024/01/12 09:50:42;;;;;;;31.55;23.20;;;;;;;;;;6290594;28;24439;-64
2024/01/12 09:53:44;;;;;;;32.03;23.02;;;;;;;;;;6291375;28;24525;-63
2024/01/12 09:56:47;;;;;;;29.50;21.65;;;;;;;;;;6275991;28;24438;-63
2024/01/12 09:59:51;;;;;;;27.63;21.08;;;;;;;;;;6291140;28;24465;-65
2024/01/12 10:02:58;;;;;;;29.95;21.45;;;;;;;;;;6284807;28;24482;-64
2024/01/12 10:05:59;;;;;;;28.27;21.25;;;;;;;;;;6291094;28;24641;-63
2024/01/12 10:09:01;;;;;;;28.48;21.52;;;;;;;;;;6288755;28;24649;-63
2024/01/12 10:12:05;;;;;;;30.00;21.58;;;;;;;;;;6292062;28;24524;-63
2024/01/12 10:15:09;;;;;;;26.75;20.20;;;;;;;;;;6290089;28;24454;-64
2024/01/12 10:18:11;;;;;;;27.85;20.27;;;;;;;;;;6291152;28;24431;-63
2024/01/12 10:21:14;;;;;;;23.88;17.90;;;;;;;;;;6273600;28;24430;-63
2024/01/12 10:24:17;;;;;;;27.27;19.38;;;;;;;;;;6289832;28;24407;-63
2024/01/12 10:27:20;;;;;;;24.53;18.40;;;;;;;;;;6288056;28;24480;-63
2024/01/12 10:30:22;;;;;;;23.60;18.17;;;;;;;;;;6290880;28;24426;-63
2024/01/12 10:33:24;;;;;;;26.08;19.27;;;;;;;;;;6290535;28;24450;-64
2024/01/12 10:36:28;;;;;;;23.80;17.30;;;;;;;;;;6293442;28;24815;-64
2024/01/12 10:39:30;;;;;;;22.52;17.10;;;;;;;;;;6287355;28;24438;-64
2024/01/12 10:42:34;;;;;;;20.30;15.88;;;;;;;;;;6291755;28;24431;-64
2024/01/12 10:45:37;;;;;;;21.03;14.50;;;;;;;;;;6290269;28;24431;-64
2024/01/12 10:48:52;;;;;;;21.88;14.95;;;;;;;;;;6287422;28;24469;-64
2024/01/12 10:52:05;;;;;;;19.83;14.77;;;;;;;;;;6292430;28;24453;-64
2024/01/12 10:55:10;;;;;;;17.52;13.43;;;;;;;;;;6290056;28;24418;-64
2024/01/12 10:58:13;;;;;;;18.33;13.80;;;;;;;;;;6290679;28;24669;-64
2024/01/12 11:01:15;;;;;;;18.50;13.32;;;;;;;;;;6289488;28;24681;-64
2024/01/12 11:04:17;;;;;;;17.95;13.30;;;;;;;;;;6291219;28;24446;-64
2024/01/12 11:07:19;;;;;;;18.13;12.80;;;;;;;;;;6286612;28;24634;-64
2024/01/12 11:10:21;;;;;;;16.75;12.40;;;;;;;;;;6290498;28;24735;-64
2024/01/12 11:13:25;;;;;;;16.50;12.10;;;;;;;;;;6291037;28;24902;-64
2024/01/12 11:16:27;;;;;;;17.10;11.93;;;;;;;;;;6291522;28;24422;-64
2024/01/12 11:19:29;;;;;;;17.70;12.10;;;;;;;;;;6285833;28;24419;-64
2024/01/12 11:22:30;;;;;;;18.60;13.00;;;;;;;;;;6290109;28;24460;-64
2024/01/12 11:25:32;;;;;;;18.13;12.68;;;;;;;;;;6287035;28;25050;-64
2024/01/12 11:28:39;;;;;;;16.73;13.35;;;;;;;;;;6289504;28;24585;-64
2024/01/12 11:31:49;;;;;;;17.42;12.65;;;;;;;;;;6287879;28;24419;-65
2024/01/12 11:34:51;;;;;;;16.98;12.75;;;;;;;;;;6284489;28;24419;-64
2024/01/12 11:38:01;;;;;;;18.88;12.98;;;;;;;;;;6292485;28;24422;-64
2024/01/12 11:41:10;;;;;;;18.05;13.00;;;;;;;;;;6271636;28;24460;-64
2024/01/12 11:44:13;;;;;;;15.50;12.60;;;;;;;;;;6288446;28;24659;-65
2024/01/12 11:47:15;;;;;;;17.83;12.88;;;;;;;;;;6289216;28;24835;-65
2024/01/12 11:50:17;;;;;;;17.27;12.88;;;;;;;;;;6289449;28;24423;-65
2024/01/12 11:53:19;;;;;;;15.40;12.57;;;;;;;;;;6272592;28;24429;-64
2024/01/12 11:56:21;;;;;;;17.15;12.70;;;;;;;;;;6286894;28;25080;-66
2024/01/12 11:59:25;;;;;;;16.63;12.30;;;;;;;;;;6287833;28;24660;-65
2024/01/12 12:02:26;;;;;;;16.08;12.60;;;;;;;;;;6288481;28;24427;-65
2024/01/12 12:05:28;;;;;;;17.73;12.90;;;;;;;;;;6289663;28;24427;-64
2024/01/12 12:08:30;;;;;;;16.48;13.10;;;;;;;;;;6287236;28;24433;-64
2024/01/12 12:11:32;;;;;;;16.67;12.73;;;;;;;;;;6271967;28;24848;-64
2024/01/12 12:14:35;;;;;;;14.95;11.90;;;;;;;;;;6288569;28;24423;-64
2024/01/12 12:17:38;;;;;;;17.53;13.27;;;;;;;;;;6288536;28;25091;-65
2024/01/12 12:20:39;;;;;;;15.90;12.80;;;;;;;;;;6287232;28;24434;-65
2024/01/12 12:23:41;;;;;;;16.97;12.70;;;;;;;;;;6289783;28;24426;-64
2024/01/12 12:26:43;;;;;;;15.68;12.57;;;;;;;;;;6292447;28;24508;-64
2024/01/12 12:29:47;;;;;;;15.85;12.13;;;;;;;;;;6288604;28;24431;-64
2024/01/12 12:32:49;;;;;;;18.33;12.90;;;;;;;;;;6289558;28;24511;-64
2024/01/12 12:36:03;;;;;;;16.48;12.38;;;;;;;;;;6289722;28;24800;-65
2024/01/12 12:39:06;;;;;;;17.15;12.38;;;;;;;;;;6290279;28;24843;-63
2024/01/12 12:42:09;;;;;;;15.30;12.13;;;;;;;;;;6268959;28;24434;-64
2024/01/12 12:45:13;;;;;;;13.75;10.75;;;;;;;;;;6287268;28;24876;-64
2024/01/12 12:48:15;;;;;;;16.02;11.43;;;;;;;;;;6263731;28;24443;-64
2024/01/12 12:51:17;;;;;;;14.00;10.70;;;;;;;;;;6289986;28;24434;-63
2024/01/12 12:54:20;;;;;;;13.33;10.67;;;;;;;;;;6287945;28;24862;-64
2024/01/12 12:57:22;;;;;;;12.88;10.05;;;;;;;;;;6285148;28;24844;-64
2024/01/12 13:00:25;;;;;;;13.63;10.70;;;;;;;;;;6284755;28;24539;-64
2024/01/12 13:03:27;;;;;;;13.32;10.52;;;;;;;;;;6285713;28;24644;-64
2024/01/12 13:06:28;;;;;;;15.07;11.30;;;;;;;;;;6287732;28;24545;-64
2024/01/12 13:09:30;;;;;;;14.73;11.83;;;;;;;;;;6289271;28;24637;-64
2024/01/12 13:12:32;;;;;;;16.20;12.40;;;;;;;;;;6286474;28;24430;-64
2024/01/12 13:15:35;;;;;;;16.13;12.13;;;;;;;;;;6285839;28;24439;-65
2024/01/12 13:18:37;;;;;;;15.80;12.20;;;;;;;;;;6288448;28;24426;-64
2024/01/12 13:21:38;;;;;;;17.17;12.90;;;;;;;;;;6288526;28;24433;-62
2024/01/12 13:24:40;;;;;;;17.15;13.40;;;;;;;;;;6285764;28;24842;-64
2024/01/12 13:27:42;;;;;;;16.90;12.57;;;;;;;;;;6267840;28;24633;-64
2024/01/12 13:30:46;;;;;;;17.30;13.18;;;;;;;;;;6269232;28;24434;-63
2024/01/12 13:33:48;;;;;;;15.38;12.15;;;;;;;;;;6288067;28;24427;-64
2024/01/12 13:36:49;;;;;;;15.23;12.25;;;;;;;;;;6292949;28;24426;-64
2024/01/12 13:39:51;;;;;;;13.88;11.63;;;;;;;;;;6291758;28;24761;-64
2024/01/12 13:42:53;;;;;;;15.43;12.23;;;;;;;;;;6290606;28;24649;-64
2024/01/12 13:45:56;;;;;;;13.43;11.57;;;;;;;;;;6290850;28;24431;-65
2024/01/12 13:48:58;;;;;;;14.50;11.82;;;;;;;;;;6289426;28;24898;-65
2024/01/12 13:51:59;;;;;;;15.70;12.55;;;;;;;;;;6295725;28;24453;-64
2024/01/12 13:55:02;;;;;;;16.43;12.43;;;;;;;;;;6293272;28;24572;-64
2024/01/12 13:58:06;;;;;;;16.52;13.32;;;;;;;;;;6297522;28;24519;-64
2024/01/12 14:01:12;;;;;;;16.95;13.65;;;;;;;;;;6292992;28;24838;-64
2024/01/12 14:04:15;;;;;;;15.57;12.85;;;;;;;;;;6296955;28;24427;-64
2024/01/12 14:07:16;;;;;;;15.85;12.68;;;;;;;;;;6296446;28;24476;-63
2024/01/12 14:10:18;;;;;;;15.95;13.20;;;;;;;;;;6275758;28;24476;-65
2024/01/12 14:13:20;;;;;;;18.20;12.85;;;;;;;;;;6291992;28;24821;-63
2024/01/12 14:16:23;;;;;;;15.73;12.35;;;;;;;;;;6281532;28;24805;-64
2024/01/12 14:19:26;;;;;;;17.25;13.40;;;;;;;;;;6290095;28;24490;-66
2024/01/12 14:22:28;;;;;;;16.58;13.43;;;;;;;;;;6290134;28;24419;-64
2024/01/12 14:25:30;;;;;;;16.92;13.20;;;;;;;;;;6293756;28;24432;-64
2024/01/12 14:28:31;;;;;;;18.23;14.90;;;;;;;;;;6292823;28;24435;-64
2024/01/12 14:31:34;;;;;;;21.55;15.07;;;;;;;;;;6291539;28;24429;-64
2024/01/12 14:34:38;;;;;;;19.73;14.95;;;;;;;;;;6291381;28;24625;-66
2024/01/12 14:37:40;;;;;;;20.80;15.20;;;;;;;;;;6292031;28;24612;-64
2024/01/12 14:40:42;;;;;;;21.10;14.75;;;;;;;;;;6274134;28;24564;-64
2024/01/12 14:43:43;;;;;;;20.25;14.45;;;;;;;;;;6292299;28;24633;-64
2024/01/12 14:46:47;;;;;;;20.45;15.35;;;;;;;;;;6278180;28;24617;-66
2024/01/12 14:49:49;;;;;;;21.67;15.07;;;;;;;;;;6276237;28;24432;-65
2024/01/12 14:52:51;;;;;;;22.20;15.18;;;;;;;;;;6291403;28;24457;-64
2024/01/12 14:55:53;;;;;;;19.85;14.80;;;;;;;;;;6294267;28;24672;-64
2024/01/12 14:58:55;;;;;;;18.77;14.50;;;;;;;;;;6291584;28;24947;-63
2024/01/12 15:01:58;;;;;;;18.67;13.95;;;;;;;;;;6292642;28;24884;-63
2024/01/12 15:04:59;;;;;;;17.83;13.15;;;;;;;;;;6291157;28;24799;-63
2024/01/12 15:08:01;;;;;;;17.27;13.32;;;;;;;;;;6293400;28;24438;-64
2024/01/12 15:11:03;;;;;;;18.08;13.60;;;;;;;;;;6290242;28;24534;-64
2024/01/12 15:14:05;;;;;;;19.42;13.75;;;;;;;;;;6290661;28;24597;-64
2024/01/12 15:17:08;;;;;;;18.05;13.60;;;;;;;;;;6291772;28;24437;-63
2024/01/12 15:20:12;;;;;;;19.75;14.07;;;;;;;;;;6272926;28;24453;-63
2024/01/12 15:23:13;;;;;;;18.48;13.50;;;;;;;;;;6288199;28;24839;-64
2024/01/12 15:26:15;;;;;;;18.45;12.93;;;;;;;;;;6294385;28;24880;-63
2024/01/12 15:29:18;;;;;;;18.23;13.85;;;;;;;;;;6292552;28;24423;-65
2024/01/12 15:32:22;;;;;;;22.38;14.85;;;;;;;;;;6288373;28;24899;-62
2024/01/12 15:35:24;;;;;;;19.65;14.63;;;;;;;;;;6271694;28;24435;-63
2024/01/12 15:38:25;;;;;;;22.40;15.40;;;;;;;;;;6287747;28;24637;-63
2024/01/12 15:41:27;;;;;;;23.77;17.45;;;;;;;;;;6286526;28;24443;-62
2024/01/12 15:44:29;;;;;;;26.15;18.38;;;;;;;;;;6290283;28;24423;-63
2024/01/12 15:47:32;;;;;;;27.23;19.10;;;;;;;;;;6289169;28;24805;-62
2024/01/12 15:50:34;;;;;;;27.77;20.23;;;;;;;;;;6274088;28;24614;-62
2024/01/12 15:53:36;;;;;;;28.88;20.13;;;;;;;;;;6289343;28;24427;-69
2024/01/12 15:56:37;;;;;;;30.30;20.15;;;;;;;;;;6289119;28;24847;-69
2024/01/12 15:59:39;;;;;;;28.70;20.25;;;;;;;;;;6293055;28;24475;-67
2024/01/12 16:02:43;;;;;;;29.13;20.93;;;;;;;;;;6289243;28;24499;-68
2024/01/12 16:05:44;;;;;;;30.38;21.27;;;;;;;;;;6290592;28;24437;-69
2024/01/12 16:08:47;;;;;;;32.00;22.40;;;;;;;;;;6271604;28;24677;-68
2024/01/12 16:11:49;;;;;;;29.65;20.98;;;;;;;;;;6285673;28;24496;-69
2024/01/12 16:14:52;;;;;;;31.17;21.95;;;;;;;;;;6287760;28;24550;-68
2024/01/12 16:17:55;;;;;;;29.87;21.63;;;;;;;;;;6288612;28;24458;-68
2024/01/12 16:20:56;;;;;;;32.53;22.33;;;;;;;;;;6287933;28;24430;-68
2024/01/12 16:23:58;;;;;;;32.28;23.33;;;;;;;;;;6289782;28;24468;-68
2024/01/12 16:27:00;;;;;;;33.35;23.70;;;;;;;;;;6288725;28;24895;-68
2024/01/12 16:30:02;;;;;;;31.20;22.13;;;;;;;;;;6286773;28;24480;-68
2024/01/12 16:33:05;;;;;;;31.67;21.43;;;;;;;;;;6290921;28;24500;-69
2024/01/12 16:36:08;;;;;;;34.53;22.93;;;;;;;;;;6289565;28;24427;-68
2024/01/12 16:39:09;;;;;;;32.55;22.30;;;;;;;;;;6268248;28;24438;-68
2024/01/12 16:42:12;;;;;;;31.58;21.27;;;;;;;;;;6270213;28;24427;-69
2024/01/12 16:45:14;;;;;;;32.30;21.98;;;;;;;;;;6264118;28;24538;-70
2024/01/12 16:48:17;;;;;;;31.45;21.90;;;;;;;;;;6291608;28;24415;-68
2024/01/12 16:51:20;;;;;;;31.00;20.65;;;;;;;;;;6287684;28;24457;-69
2024/01/12 16:54:22;;;;;;;30.55;20.55;;;;;;;;;;6272443;28;24454;-67
2024/01/12 16:57:23;;;;;;;29.13;20.80;;;;;;;;;;6284762;28;24509;-68
2024/01/12 17:00:26;;;;;;;31.33;21.52;;;;;;;;;;6272519;28;24836;-68
2024/01/12 17:03:30;;;;;;;29.40;20.02;;;;;;;;;;6290031;28;24439;-68
2024/01/12 17:06:37;;;;;;;28.30;19.85;;;;;;;;;;6271681;28;24438;-69
2024/01/12 17:09:39;;;;;;;29.25;20.33;;;;;;;;;;6271060;28;24420;-69
2024/01/12 17:12:41;;;;;;;31.75;21.38;;;;;;;;;;6285606;28;24450;-70
2024/01/12 17:15:45;;;;;;;27.55;19.80;;;;;;;;;;6289781;28;24836;-63
2024/01/12 17:18:48;;;;;;;31.60;19.90;;;;;;;;;;6292074;28;24489;-63
2024/01/12 17:21:50;;;;;;;29.20;19.60;;;;;;;;;;6285942;28;24441;-63
2024/01/12 17:24:52;;;;;;;28.33;19.45;;;;;;;;;;6290574;28;24568;-63
2024/01/12 17:27:54;;;;;;;29.93;19.60;;;;;;;;;;6291180;28;24427;-63
2024/01/12 17:30:56;;;;;;;32.75;21.35;;;;;;;;;;6292799;28;24443;-63
2024/01/12 17:33:59;;;;;;;33.15;20.88;;;;;;;;;;6294441;28;24450;-65
2024/01/12 17:37:01;;;;;;;32.15;21.33;;;;;;;;;;6293300;28;24448;-63
2024/01/12 17:40:03;;;;;;;29.98;20.13;;;;;;;;;;6296368;28;24497;-63